sensor_id;sensor_type;location;lat;lon;timestamp;temperature;humidity
7476;DHT22;3779;49.216;8.650;2024-03-17T00:00:00;20.10;47.20
7476;DHT22;3779;49.216;8.650;2024-03-17T00:02:47;20.00;47.70
7476;DHT22;3779;49.216;8.650;2024-03-17T00:05:33;20.00;47.40
7476;DHT22;3779;49.216;8.650;2024-03-17T00:08:19;20.00;47.80
7476;DHT22;3779;49.216;8.650;2024-03-17T00:11:06;20.00;46.60
7476;DHT22;3779;49.216;8.650;2024-03-17T00:13:53;20.00;46.70
7476;DHT22;3779;49.216;8.650;2024-03-17T00:16:39;20.00;47.00
7476;DHT22;3779;49.216;8.650;2024-03-17T00:19:25;20.00;46.70
7476;DHT22;3779;49.216;8.650;2024-03-17T00:22:12;20.00;47.90
7476;DHT22;3779;49.216;8.650;2024-03-17T00:24:59;20.10;47.30
7476;DHT22;3779;49.216;8.650;2024-03-17T00:27:45;20.00;47.30
7476;DHT22;3779;49.216;8.650;2024-03-17T00:30:33;20.10;47.90
7476;DHT22;3779;49.216;8.650;2024-03-17T00:33:19;20.10;46.40
7476;DHT22;3779;49.216;8.650;2024-03-17T00:36:07;19.90;47.30
7476;DHT22;3779;49.216;8.650;2024-03-17T00:38:53;20.00;47.90
7476;DHT22;3779;49.216;8.650;2024-03-17T00:41:40;20.00;48.00
7476;DHT22;3779;49.216;8.650;2024-03-17T00:44:31;20.00;47.80
7476;DHT22;3779;49.216;8.650;2024-03-17T00:47:40;20.10;47.60
7476;DHT22;3779;49.216;8.650;2024-03-17T00:50:30;20.00;47.90
7476;DHT22;3779;49.216;8.650;2024-03-17T00:53:16;20.00;48.90
7476;DHT22;3779;49.216;8.650;2024-03-17T00:56:03;20.80;47.60
7476;DHT22;3779;49.216;8.650;2024-03-17T00:58:50;20.00;46.80
7476;DHT22;3779;49.216;8.650;2024-03-17T01:01:37;20.10;47.80
7476;DHT22;3779;49.216;8.650;2024-03-17T01:04:23;20.10;47.90
7476;DHT22;3779;49.216;8.650;2024-03-17T01:07:11;20.00;46.90
7476;DHT22;3779;49.216;8.650;2024-03-17T01:09:57;19.90;46.60
7476;DHT22;3779;49.216;8.650;2024-03-17T01:12:43;20.00;46.00
7476;DHT22;3779;49.216;8.650;2024-03-17T01:15:30;20.00;46.60
7476;DHT22;3779;49.216;8.650;2024-03-17T01:18:16;19.90;47.40
7476;DHT22;3779;49.216;8.650;2024-03-17T01:21:03;20.00;46.80
7476;DHT22;3779;49.216;8.650;2024-03-17T01:23:49;19.90;46.90
7476;DHT22;3779;49.216;8.650;2024-03-17T01:26:35;20.00;48.60
7476;DHT22;3779;49.216;8.650;2024-03-17T01:29:22;20.00;48.20
7476;DHT22;3779;49.216;8.650;2024-03-17T01:32:08;20.00;47.70
7476;DHT22;3779;49.216;8.650;2024-03-17T01:34:54;20.00;48.20
7476;DHT22;3779;49.216;8.650;2024-03-17T01:37:40;20.10;47.50
7476;DHT22;3779;49.216;8.650;2024-03-17T01:40:26;20.00;47.80
7476;DHT22;3779;49.216;8.650;2024-03-17T01:43:12;20.00;47.00
7476;DHT22;3779;49.216;8.650;2024-03-17T01:45:59;20.00;47.40
7476;DHT22;3779;49.216;8.650;2024-03-17T01:48:45;20.00;47.20
7476;DHT22;3779;49.216;8.650;2024-03-17T01:51:31;20.00;47.60
7476;DHT22;3779;49.216;8.650;2024-03-17T01:54:19;20.00;47.20
7476;DHT22;3779;49.216;8.650;2024-03-17T01:57:05;19.90;46.30
7476;DHT22;3779;49.216;8.650;2024-03-17T01:59:51;19.90;46.00
7476;DHT22;3779;49.216;8.650;2024-03-17T02:02:38;19.90;46.00
7476;DHT22;3779;49.216;8.650;2024-03-17T02:05:24;20.00;47.10
7476;DHT22;3779;49.216;8.650;2024-03-17T02:08:10;19.90;46.70
7476;DHT22;3779;49.216;8.650;2024-03-17T02:10:56;20.00;47.80
7476;DHT22;3779;49.216;8.650;2024-03-17T02:13:43;19.90;48.70
7476;DHT22;3779;49.216;8.650;2024-03-17T02:16:28;19.90;47.80
7476;DHT22;3779;49.216;8.650;2024-03-17T02:19:14;20.00;48.40
7476;DHT22;3779;49.216;8.650;2024-03-17T02:22:00;20.00;48.30
7476;DHT22;3779;49.216;8.650;2024-03-17T02:24:46;20.00;46.40
7476;DHT22;3779;49.216;8.650;2024-03-17T02:27:37;20.00;46.70
7476;DHT22;3779;49.216;8.650;2024-03-17T02:30:24;19.90;46.00
7476;DHT22;3779;49.216;8.650;2024-03-17T02:33:10;19.90;46.20
7476;DHT22;3779;49.216;8.650;2024-03-17T02:35:56;19.90;47.10
7476;DHT22;3779;49.216;8.650;2024-03-17T02:38:42;19.90;48.00
7476;DHT22;3779;49.216;8.650;2024-03-17T02:41:46;20.00;47.90
7476;DHT22;3779;49.216;8.650;2024-03-17T02:44:33;20.00;47.70
7476;DHT22;3779;49.216;8.650;2024-03-17T02:47:19;19.90;46.30
7476;DHT22;3779;49.216;8.650;2024-03-17T02:50:08;19.90;46.70
7476;DHT22;3779;49.216;8.650;2024-03-17T02:52:54;20.00;47.50
7476;DHT22;3779;49.216;8.650;2024-03-17T02:55:40;20.00;46.90
7476;DHT22;3779;49.216;8.650;2024-03-17T02:58:26;20.00;46.60
7476;DHT22;3779;49.216;8.650;2024-03-17T03:01:12;20.10;46.80
7476;DHT22;3779;49.216;8.650;2024-03-17T03:03:58;20.00;46.40
7476;DHT22;3779;49.216;8.650;2024-03-17T03:06:44;19.90;45.40
7476;DHT22;3779;49.216;8.650;2024-03-17T03:09:30;19.90;45.60
7476;DHT22;3779;49.216;8.650;2024-03-17T03:12:18;20.10;46.70
7476;DHT22;3779;49.216;8.650;2024-03-17T03:15:05;19.90;46.30
7476;DHT22;3779;49.216;8.650;2024-03-17T03:17:51;19.90;45.40
7476;DHT22;3779;49.216;8.650;2024-03-17T03:20:37;19.90;46.30
7476;DHT22;3779;49.216;8.650;2024-03-17T03:23:23;19.90;45.90
7476;DHT22;3779;49.216;8.650;2024-03-17T03:26:09;19.90;46.80
7476;DHT22;3779;49.216;8.650;2024-03-17T03:28:56;19.90;46.40
7476;DHT22;3779;49.216;8.650;2024-03-17T03:31:42;19.90;46.70
7476;DHT22;3779;49.216;8.650;2024-03-17T03:34:29;19.90;48.20
7476;DHT22;3779;49.216;8.650;2024-03-17T03:37:17;19.90;47.00
7476;DHT22;3779;49.216;8.650;2024-03-17T03:40:03;20.00;48.20
7476;DHT22;3779;49.216;8.650;2024-03-17T03:43:04;20.00;47.50
7476;DHT22;3779;49.216;8.650;2024-03-17T03:45:53;20.00;46.80
7476;DHT22;3779;49.216;8.650;2024-03-17T03:48:39;20.10;48.30
7476;DHT22;3779;49.216;8.650;2024-03-17T03:51:25;20.00;46.90
7476;DHT22;3779;49.216;8.650;2024-03-17T03:54:11;20.00;46.00
7476;DHT22;3779;49.216;8.650;2024-03-17T03:56:57;20.10;46.90
7476;DHT22;3779;49.216;8.650;2024-03-17T03:59:43;20.10;45.30
7476;DHT22;3779;49.216;8.650;2024-03-17T04:02:30;20.00;46.00
7476;DHT22;3779;49.216;8.650;2024-03-17T04:05:19;19.90;45.40
7476;DHT22;3779;49.216;8.650;2024-03-17T04:08:05;19.90;46.00
7476;DHT22;3779;49.216;8.650;2024-03-17T04:10:51;20.00;47.60
7476;DHT22;3779;49.216;8.650;2024-03-17T04:13:38;20.00;48.80
7476;DHT22;3779;49.216;8.650;2024-03-17T04:16:24;20.70;47.80
7476;DHT22;3779;49.216;8.650;2024-03-17T04:19:12;20.00;44.80
7476;DHT22;3779;49.216;8.650;2024-03-17T04:21:59;19.90;43.70
7476;DHT22;3779;49.216;8.650;2024-03-17T04:24:48;19.90;46.00
7476;DHT22;3779;49.216;8.650;2024-03-17T04:27:38;19.90;48.70
7476;DHT22;3779;49.216;8.650;2024-03-17T04:30:24;19.90;49.10
7476;DHT22;3779;49.216;8.650;2024-03-17T04:33:12;20.00;48.20
7476;DHT22;3779;49.216;8.650;2024-03-17T04:35:58;20.00;48.30
7476;DHT22;3779;49.216;8.650;2024-03-17T04:38:44;20.00;48.40
7476;DHT22;3779;49.216;8.650;2024-03-17T04:41:30;20.00;46.90
7476;DHT22;3779;49.216;8.650;2024-03-17T04:44:16;20.00;48.00
7476;DHT22;3779;49.216;8.650;2024-03-17T04:47:03;20.00;48.40
7476;DHT22;3779;49.216;8.650;2024-03-17T04:49:52;20.00;49.10
7476;DHT22;3779;49.216;8.650;2024-03-17T04:52:38;20.00;47.70
7476;DHT22;3779;49.216;8.650;2024-03-17T04:55:26;20.00;46.30
7476;DHT22;3779;49.216;8.650;2024-03-17T04:58:12;20.10;47.30
7476;DHT22;3779;49.216;8.650;2024-03-17T05:01:03;20.00;45.30
7476;DHT22;3779;49.216;8.650;2024-03-17T05:03:51;20.10;45.40
7476;DHT22;3779;49.216;8.650;2024-03-17T05:06:37;20.00;44.90
7476;DHT22;3779;49.216;8.650;2024-03-17T05:09:23;20.00;46.30
7476;DHT22;3779;49.216;8.650;2024-03-17T05:12:09;20.00;45.80
7476;DHT22;3779;49.216;8.650;2024-03-17T05:14:55;20.00;44.30
7476;DHT22;3779;49.216;8.650;2024-03-17T05:17:41;20.00;45.40
7476;DHT22;3779;49.216;8.650;2024-03-17T05:20:26;19.90;45.00
7476;DHT22;3779;49.216;8.650;2024-03-17T05:23:15;19.90;43.50
7476;DHT22;3779;49.216;8.650;2024-03-17T05:26:01;20.00;43.70
7476;DHT22;3779;49.216;8.650;2024-03-17T05:28:47;19.90;44.00
7476;DHT22;3779;49.216;8.650;2024-03-17T05:31:33;20.00;44.80
7476;DHT22;3779;49.216;8.650;2024-03-17T05:34:19;19.90;46.30
7476;DHT22;3779;49.216;8.650;2024-03-17T05:37:06;20.00;45.00
7476;DHT22;3779;49.216;8.650;2024-03-17T05:39:52;19.90;46.60
7476;DHT22;3779;49.216;8.650;2024-03-17T05:42:38;20.00;46.70
7476;DHT22;3779;49.216;8.650;2024-03-17T05:45:26;20.10;47.90
7476;DHT22;3779;49.216;8.650;2024-03-17T05:48:12;20.00;47.70
7476;DHT22;3779;49.216;8.650;2024-03-17T05:51:02;20.00;48.50
7476;DHT22;3779;49.216;8.650;2024-03-17T07:03:43;19.90;47.70
7476;DHT22;3779;49.216;8.650;2024-03-17T07:06:29;19.90;48.80
7476;DHT22;3779;49.216;8.650;2024-03-17T07:09:15;19.90;47.90
7476;DHT22;3779;49.216;8.650;2024-03-17T07:12:03;20.00;46.80
7476;DHT22;3779;49.216;8.650;2024-03-17T07:14:52;19.90;47.80
7476;DHT22;3779;49.216;8.650;2024-03-17T07:17:40;19.90;47.50
7476;DHT22;3779;49.216;8.650;2024-03-17T07:20:25;19.80;47.60
7476;DHT22;3779;49.216;8.650;2024-03-17T07:23:12;20.00;48.30
7476;DHT22;3779;49.216;8.650;2024-03-17T07:25:59;19.90;47.50
7476;DHT22;3779;49.216;8.650;2024-03-17T07:28:45;19.90;47.80
7476;DHT22;3779;49.216;8.650;2024-03-17T07:31:31;19.80;48.80
7476;DHT22;3779;49.216;8.650;2024-03-17T07:34:17;19.80;48.90
7476;DHT22;3779;49.216;8.650;2024-03-17T07:37:03;19.90;48.40
7476;DHT22;3779;49.216;8.650;2024-03-17T07:39:49;19.90;48.70
7476;DHT22;3779;49.216;8.650;2024-03-17T07:42:35;19.90;47.40
7476;DHT22;3779;49.216;8.650;2024-03-17T07:45:20;20.00;48.00
7476;DHT22;3779;49.216;8.650;2024-03-17T07:48:06;20.00;48.00
7476;DHT22;3779;49.216;8.650;2024-03-17T07:51:04;20.00;47.70
7476;DHT22;3779;49.216;8.650;2024-03-17T07:53:51;19.90;48.70
7476;DHT22;3779;49.216;8.650;2024-03-17T07:56:37;20.00;48.10
7476;DHT22;3779;49.216;8.650;2024-03-17T07:59:23;19.90;48.90
7476;DHT22;3779;49.216;8.650;2024-03-17T08:02:09;20.10;49.10
7476;DHT22;3779;49.216;8.650;2024-03-17T08:04:55;20.00;49.30
7476;DHT22;3779;49.216;8.650;2024-03-17T08:07:41;20.00;48.10
7476;DHT22;3779;49.216;8.650;2024-03-17T08:10:32;19.80;47.10
7476;DHT22;3779;49.216;8.650;2024-03-17T08:13:18;19.80;48.40
7476;DHT22;3779;49.216;8.650;2024-03-17T09:23:35;20.00;49.20
7476;DHT22;3779;49.216;8.650;2024-03-17T09:26:25;20.00;48.70
7476;DHT22;3779;49.216;8.650;2024-03-17T09:29:12;20.00;48.80
7476;DHT22;3779;49.216;8.650;2024-03-17T09:32:01;20.00;48.50
7476;DHT22;3779;49.216;8.650;2024-03-17T09:34:48;20.10;48.30
7476;DHT22;3779;49.216;8.650;2024-03-17T09:37:38;20.00;48.80
7476;DHT22;3779;49.216;8.650;2024-03-17T09:40:24;20.00;48.50
7476;DHT22;3779;49.216;8.650;2024-03-17T09:43:11;20.00;48.50
7476;DHT22;3779;49.216;8.650;2024-03-17T09:45:58;20.00;48.50
7476;DHT22;3779;49.216;8.650;2024-03-17T09:48:53;20.00;49.30
7476;DHT22;3779;49.216;8.650;2024-03-17T09:51:54;20.00;48.60
7476;DHT22;3779;49.216;8.650;2024-03-17T09:54:45;20.00;49.00
7476;DHT22;3779;49.216;8.650;2024-03-17T09:57:33;20.10;48.90
7476;DHT22;3779;49.216;8.650;2024-03-17T10:00:22;20.10;48.30
7476;DHT22;3779;49.216;8.650;2024-03-17T10:03:08;20.10;48.90
7476;DHT22;3779;49.216;8.650;2024-03-17T10:06:02;20.00;49.70
7476;DHT22;3779;49.216;8.650;2024-03-17T10:08:51;20.10;49.10
7476;DHT22;3779;49.216;8.650;2024-03-17T10:11:42;20.10;49.40
7476;DHT22;3779;49.216;8.650;2024-03-17T10:14:30;20.10;50.10
7476;DHT22;3779;49.216;8.650;2024-03-17T10:17:29;20.20;49.20
7476;DHT22;3779;49.216;8.650;2024-03-17T10:20:20;20.10;49.90
7476;DHT22;3779;49.216;8.650;2024-03-17T10:23:06;20.10;49.30
7476;DHT22;3779;49.216;8.650;2024-03-17T10:25:55;20.10;49.10
7476;DHT22;3779;49.216;8.650;2024-03-17T10:28:44;21.00;50.20
7476;DHT22;3779;49.216;8.650;2024-03-17T10:31:32;20.10;49.20
7476;DHT22;3779;49.216;8.650;2024-03-17T10:34:26;20.10;49.80
7476;DHT22;3779;49.216;8.650;2024-03-17T10:37:15;20.10;49.30
7476;DHT22;3779;49.216;8.650;2024-03-17T10:40:08;20.10;48.70
7476;DHT22;3779;49.216;8.650;2024-03-17T10:43:00;20.10;49.60
7476;DHT22;3779;49.216;8.650;2024-03-17T10:45:54;20.20;49.40
7476;DHT22;3779;49.216;8.650;2024-03-17T10:48:44;20.20;48.70
7476;DHT22;3779;49.216;8.650;2024-03-17T10:51:31;20.20;49.40
7476;DHT22;3779;49.216;8.650;2024-03-17T10:54:26;20.10;49.10
7476;DHT22;3779;49.216;8.650;2024-03-17T11:00:02;20.10;50.20
7476;DHT22;3779;49.216;8.650;2024-03-17T11:02:56;20.10;49.60
7476;DHT22;3779;49.216;8.650;2024-03-17T11:05:48;20.20;49.20
7476;DHT22;3779;49.216;8.650;2024-03-17T11:08:37;20.10;49.60
7476;DHT22;3779;49.216;8.650;2024-03-17T11:11:37;20.20;50.00
7476;DHT22;3779;49.216;8.650;2024-03-17T11:14:25;20.20;49.70
7476;DHT22;3779;49.216;8.650;2024-03-17T11:17:18;20.20;49.10
7476;DHT22;3779;49.216;8.650;2024-03-17T11:20:18;20.10;49.60
7476;DHT22;3779;49.216;8.650;2024-03-17T11:23:28;20.20;48.90
7476;DHT22;3779;49.216;8.650;2024-03-17T11:26:33;20.20;48.80
7476;DHT22;3779;49.216;8.650;2024-03-17T11:29:28;20.20;48.80
7476;DHT22;3779;49.216;8.650;2024-03-17T11:32:27;20.10;49.20
7476;DHT22;3779;49.216;8.650;2024-03-17T11:35:22;20.20;49.70
7476;DHT22;3779;49.216;8.650;2024-03-17T11:41:46;20.10;50.90
7476;DHT22;3779;49.216;8.650;2024-03-17T11:44:33;20.10;50.60
7476;DHT22;3779;49.216;8.650;2024-03-17T11:47:19;20.20;50.00
7476;DHT22;3779;49.216;8.650;2024-03-17T11:50:18;20.20;50.40
7476;DHT22;3779;49.216;8.650;2024-03-17T11:53:12;20.10;50.90
7476;DHT22;3779;49.216;8.650;2024-03-17T11:55:58;20.20;49.80
7476;DHT22;3779;49.216;8.650;2024-03-17T11:58:44;20.20;48.20
7476;DHT22;3779;49.216;8.650;2024-03-17T12:01:31;20.90;48.20
7476;DHT22;3779;49.216;8.650;2024-03-17T12:04:23;20.10;49.90
7476;DHT22;3779;49.216;8.650;2024-03-17T12:07:14;20.20;49.40
7476;DHT22;3779;49.216;8.650;2024-03-17T12:10:00;20.20;48.60
7476;DHT22;3779;49.216;8.650;2024-03-17T12:12:48;20.20;48.00
7476;DHT22;3779;49.216;8.650;2024-03-17T12:15:36;20.20;48.60
7476;DHT22;3779;49.216;8.650;2024-03-17T12:18:24;20.30;48.90
7476;DHT22;3779;49.216;8.650;2024-03-17T12:21:18;20.30;48.60
7476;DHT22;3779;49.216;8.650;2024-03-17T12:24:18;20.20;49.20
7476;DHT22;3779;49.216;8.650;2024-03-17T12:27:24;20.20;49.40
7476;DHT22;3779;49.216;8.650;2024-03-17T12:30:26;20.30;50.40
7476;DHT22;3779;49.216;8.650;2024-03-17T12:33:14;20.20;50.00
7476;DHT22;3779;49.216;8.650;2024-03-17T12:36:02;20.30;48.80
7476;DHT22;3779;49.216;8.650;2024-03-17T12:38:53;20.20;49.00
7476;DHT22;3779;49.216;8.650;2024-03-17T12:41:41;20.20;49.60
7476;DHT22;3779;49.216;8.650;2024-03-17T12:44:28;20.30;49.00
7476;DHT22;3779;49.216;8.650;2024-03-17T12:47:26;20.20;49.10
7476;DHT22;3779;49.216;8.650;2024-03-17T14:04:52;20.20;48.30
7476;DHT22;3779;49.216;8.650;2024-03-17T14:07:38;20.30;48.90
7476;DHT22;3779;49.216;8.650;2024-03-17T14:10:27;20.20;48.60
7476;DHT22;3779;49.216;8.650;2024-03-17T14:13:40;20.30;47.70
7476;DHT22;3779;49.216;8.650;2024-03-17T14:16:25;20.30;48.30
7476;DHT22;3779;49.216;8.650;2024-03-17T14:19:13;20.30;48.70
7476;DHT22;3779;49.216;8.650;2024-03-17T14:22:01;20.30;49.10
7476;DHT22;3779;49.216;8.650;2024-03-17T14:24:47;20.20;49.30
7476;DHT22;3779;49.216;8.650;2024-03-17T14:27:33;20.30;48.70
7476;DHT22;3779;49.216;8.650;2024-03-17T14:30:20;20.30;48.10
7476;DHT22;3779;49.216;8.650;2024-03-17T14:33:06;20.30;46.10
7476;DHT22;3779;49.216;8.650;2024-03-17T14:35:57;20.40;47.40
7476;DHT22;3779;49.216;8.650;2024-03-17T14:38:43;20.30;47.90
7476;DHT22;3779;49.216;8.650;2024-03-17T14:41:30;20.30;47.40
7476;DHT22;3779;49.216;8.650;2024-03-17T14:44:16;20.30;48.20
7476;DHT22;3779;49.216;8.650;2024-03-17T14:47:02;20.20;48.90
7476;DHT22;3779;49.216;8.650;2024-03-17T14:49:49;20.20;48.90
7476;DHT22;3779;49.216;8.650;2024-03-17T14:52:37;20.30;48.80
7476;DHT22;3779;49.216;8.650;2024-03-17T14:55:23;20.20;49.00
7476;DHT22;3779;49.216;8.650;2024-03-17T14:58:09;20.20;48.50
7476;DHT22;3779;49.216;8.650;2024-03-17T15:00:57;20.20;47.70
7476;DHT22;3779;49.216;8.650;2024-03-17T15:03:43;20.30;47.00
7476;DHT22;3779;49.216;8.650;2024-03-17T15:06:29;20.30;47.40
7476;DHT22;3779;49.216;8.650;2024-03-17T15:09:16;20.30;46.80
7476;DHT22;3779;49.216;8.650;2024-03-17T15:12:04;20.30;46.30
7476;DHT22;3779;49.216;8.650;2024-03-17T15:14:52;20.30;46.10
7476;DHT22;3779;49.216;8.650;2024-03-17T15:17:38;20.20;47.10
7476;DHT22;3779;49.216;8.650;2024-03-17T15:20:26;20.20;47.40
7476;DHT22;3779;49.216;8.650;2024-03-17T15:23:12;20.30;46.80
7476;DHT22;3779;49.216;8.650;2024-03-17T15:26:05;20.30;46.70
7476;DHT22;3779;49.216;8.650;2024-03-17T15:28:54;20.30;46.30
7476;DHT22;3779;49.216;8.650;2024-03-17T15:31:42;20.30;46.40
7476;DHT22;3779;49.216;8.650;2024-03-17T15:34:28;20.30;46.30
7476;DHT22;3779;49.216;8.650;2024-03-17T15:37:17;20.30;47.60
7476;DHT22;3779;49.216;8.650;2024-03-17T15:40:04;20.30;47.10
7476;DHT22;3779;49.216;8.650;2024-03-17T15:42:51;20.30;46.80
7476;DHT22;3779;49.216;8.650;2024-03-17T15:45:37;20.30;47.30
7476;DHT22;3779;49.216;8.650;2024-03-17T15:48:23;20.30;47.00
7476;DHT22;3779;49.216;8.650;2024-03-17T15:51:10;20.30;47.00
7476;DHT22;3779;49.216;8.650;2024-03-17T15:53:56;20.40;46.40
7476;DHT22;3779;49.216;8.650;2024-03-17T15:56:42;20.30;46.30
7476;DHT22;3779;49.216;8.650;2024-03-17T15:59:28;20.40;45.90
7476;DHT22;3779;49.216;8.650;2024-03-17T16:02:13;20.20;46.40
7476;DHT22;3779;49.216;8.650;2024-03-17T16:04:59;20.30;46.00
7476;DHT22;3779;49.216;8.650;2024-03-17T16:07:45;20.40;45.90
7476;DHT22;3779;49.216;8.650;2024-03-17T16:10:33;20.30;45.90
7476;DHT22;3779;49.216;8.650;2024-03-17T16:13:20;20.30;46.50
7476;DHT22;3779;49.216;8.650;2024-03-17T16:16:08;20.20;47.20
7476;DHT22;3779;49.216;8.650;2024-03-17T16:18:57;20.30;47.10
7476;DHT22;3779;49.216;8.650;2024-03-17T16:21:43;20.40;46.50
7476;DHT22;3779;49.216;8.650;2024-03-17T17:34:04;20.00;46.50
7476;DHT22;3779;49.216;8.650;2024-03-17T17:36:50;20.10;46.40
7476;DHT22;3779;49.216;8.650;2024-03-17T17:39:37;20.10;46.30
7476;DHT22;3779;49.216;8.650;2024-03-17T17:42:25;20.20;46.50
7476;DHT22;3779;49.216;8.650;2024-03-17T17:45:10;20.10;46.20
7476;DHT22;3779;49.216;8.650;2024-03-17T17:47:58;20.10;46.30
7476;DHT22;3779;49.216;8.650;2024-03-17T17:50:45;20.10;46.80
7476;DHT22;3779;49.216;8.650;2024-03-17T17:53:31;20.00;46.80
7476;DHT22;3779;49.216;8.650;2024-03-17T17:56:18;20.00;46.80
7476;DHT22;3779;49.216;8.650;2024-03-17T17:59:06;20.00;46.80
7476;DHT22;3779;49.216;8.650;2024-03-17T18:01:52;20.00;46.80
7476;DHT22;3779;49.216;8.650;2024-03-17T18:04:41;20.00;47.20
7476;DHT22;3779;49.216;8.650;2024-03-17T18:07:30;20.00;47.10
7476;DHT22;3779;49.216;8.650;2024-03-17T18:10:19;20.00;47.20
7476;DHT22;3779;49.216;8.650;2024-03-17T18:13:06;20.00;47.30
7476;DHT22;3779;49.216;8.650;2024-03-17T18:16:00;20.00;47.40
7476;DHT22;3779;49.216;8.650;2024-03-17T18:19:13;20.00;48.00
7476;DHT22;3779;49.216;8.650;2024-03-17T18:21:59;19.90;48.30
7476;DHT22;3779;49.216;8.650;2024-03-17T18:24:47;19.90;48.20
7476;DHT22;3779;49.216;8.650;2024-03-17T18:27:33;19.90;48.20
7476;DHT22;3779;49.216;8.650;2024-03-17T18:30:19;20.00;48.10
7476;DHT22;3779;49.216;8.650;2024-03-17T18:33:05;19.90;48.00
7476;DHT22;3779;49.216;8.650;2024-03-17T18:35:53;19.90;48.20
7476;DHT22;3779;49.216;8.650;2024-03-17T18:38:39;19.90;48.40
7476;DHT22;3779;49.216;8.650;2024-03-17T18:41:25;19.90;48.10
7476;DHT22;3779;49.216;8.650;2024-03-17T18:44:12;19.90;48.20
7476;DHT22;3779;49.216;8.650;2024-03-17T18:46:59;19.80;48.00
7476;DHT22;3779;49.216;8.650;2024-03-17T18:49:45;19.90;48.30
7476;DHT22;3779;49.216;8.650;2024-03-17T18:52:34;19.80;48.20
7476;DHT22;3779;49.216;8.650;2024-03-17T18:55:21;19.80;48.20
7476;DHT22;3779;49.216;8.650;2024-03-17T18:58:12;19.80;48.50
7476;DHT22;3779;49.216;8.650;2024-03-17T19:01:00;19.80;48.40
7476;DHT22;3779;49.216;8.650;2024-03-17T19:03:59;19.80;48.50
7476;DHT22;3779;49.216;8.650;2024-03-17T19:06:53;19.80;48.90
7476;DHT22;3779;49.216;8.650;2024-03-17T19:09:42;19.80;48.50
7476;DHT22;3779;49.216;8.650;2024-03-17T19:12:30;19.80;48.50
7476;DHT22;3779;49.216;8.650;2024-03-17T19:15:19;19.80;48.80
7476;DHT22;3779;49.216;8.650;2024-03-17T19:18:06;19.80;48.70
7476;DHT22;3779;49.216;8.650;2024-03-17T19:23:55;19.80;49.20
7476;DHT22;3779;49.216;8.650;2024-03-17T19:26:41;19.80;49.50
7476;DHT22;3779;49.216;8.650;2024-03-17T19:29:28;19.90;48.90
7476;DHT22;3779;49.216;8.650;2024-03-17T19:32:14;19.90;48.60
7476;DHT22;3779;49.216;8.650;2024-03-17T19:35:00;19.90;49.00
7476;DHT22;3779;49.216;8.650;2024-03-17T19:37:47;19.90;48.70
7476;DHT22;3779;49.216;8.650;2024-03-17T19:40:36;19.90;48.80
7476;DHT22;3779;49.216;8.650;2024-03-17T19:43:31;19.80;48.90
7476;DHT22;3779;49.216;8.650;2024-03-17T19:46:23;19.80;49.50
7476;DHT22;3779;49.216;8.650;2024-03-17T19:49:09;19.80;49.40
7476;DHT22;3779;49.216;8.650;2024-03-17T19:51:55;19.90;49.70
7476;DHT22;3779;49.216;8.650;2024-03-17T19:54:42;19.90;49.20
7476;DHT22;3779;49.216;8.650;2024-03-17T19:57:28;19.90;49.50
7476;DHT22;3779;49.216;8.650;2024-03-17T20:00:14;20.00;49.90
7476;DHT22;3779;49.216;8.650;2024-03-17T20:03:01;19.90;49.90
7476;DHT22;3779;49.216;8.650;2024-03-17T20:05:48;20.00;49.30
7476;DHT22;3779;49.216;8.650;2024-03-17T20:11:53;19.90;48.60
7476;DHT22;3779;49.216;8.650;2024-03-17T20:14:43;19.90;48.40
7476;DHT22;3779;49.216;8.650;2024-03-17T20:17:29;19.90;48.60
7476;DHT22;3779;49.216;8.650;2024-03-17T20:20:17;19.90;49.10
7476;DHT22;3779;49.216;8.650;2024-03-17T20:23:09;19.90;48.80
7476;DHT22;3779;49.216;8.650;2024-03-17T20:25:55;19.90;49.50
7476;DHT22;3779;49.216;8.650;2024-03-17T20:28:46;19.90;49.20
7476;DHT22;3779;49.216;8.650;2024-03-17T20:31:32;19.90;49.10
7476;DHT22;3779;49.216;8.650;2024-03-17T20:34:20;19.90;49.00
7476;DHT22;3779;49.216;8.650;2024-03-17T20:37:06;19.90;48.50
7476;DHT22;3779;49.216;8.650;2024-03-17T20:39:52;19.90;49.00
7476;DHT22;3779;49.216;8.650;2024-03-17T20:42:38;19.90;48.80
7476;DHT22;3779;49.216;8.650;2024-03-17T20:45:24;19.90;48.80
7476;DHT22;3779;49.216;8.650;2024-03-17T20:48:10;19.90;48.70
7476;DHT22;3779;49.216;8.650;2024-03-17T20:50:57;19.90;49.10
7476;DHT22;3779;49.216;8.650;2024-03-17T20:53:45;19.90;49.20
7476;DHT22;3779;49.216;8.650;2024-03-17T20:56:31;19.90;48.50
7476;DHT22;3779;49.216;8.650;2024-03-17T21:02:11;19.70;48.30
7476;DHT22;3779;49.216;8.650;2024-03-17T22:17:07;19.80;50.60
7476;DHT22;3779;49.216;8.650;2024-03-17T22:19:56;19.70;50.40
7476;DHT22;3779;49.216;8.650;2024-03-17T22:22:46;19.70;50.40
7476;DHT22;3779;49.216;8.650;2024-03-17T22:25:34;19.70;50.70
7476;DHT22;3779;49.216;8.650;2024-03-17T22:28:21;19.70;50.90
7476;DHT22;3779;49.216;8.650;2024-03-17T22:31:07;19.70;50.60
7476;DHT22;3779;49.216;8.650;2024-03-17T22:33:54;19.70;50.60
7476;DHT22;3779;49.216;8.650;2024-03-17T22:36:41;19.60;50.80
7476;DHT22;3779;49.216;8.650;2024-03-17T22:39:27;19.50;51.10
7476;DHT22;3779;49.216;8.650;2024-03-17T22:42:13;19.60;51.20
7476;DHT22;3779;49.216;8.650;2024-03-17T22:45:00;19.70;50.90
7476;DHT22;3779;49.216;8.650;2024-03-17T22:47:51;19.70;50.70
7476;DHT22;3779;49.216;8.650;2024-03-17T22:50:39;19.70;50.70
7476;DHT22;3779;49.216;8.650;2024-03-17T22:53:27;19.70;50.70
7476;DHT22;3779;49.216;8.650;2024-03-17T22:56:16;19.80;50.80
7476;DHT22;3779;49.216;8.650;2024-03-17T22:59:03;19.70;50.60
7476;DHT22;3779;49.216;8.650;2024-03-17T23:01:50;19.80;50.60
7476;DHT22;3779;49.216;8.650;2024-03-17T23:04:37;19.70;50.40
7476;DHT22;3779;49.216;8.650;2024-03-17T23:07:23;19.80;50.30
7476;DHT22;3779;49.216;8.650;2024-03-17T23:10:09;20.70;50.80
7476;DHT22;3779;49.216;8.650;2024-03-17T23:12:56;19.80;50.00
7476;DHT22;3779;49.216;8.650;2024-03-17T23:15:42;19.80;49.70
7476;DHT22;3779;49.216;8.650;2024-03-17T23:18:32;19.80;49.70
7476;DHT22;3779;49.216;8.650;2024-03-17T23:21:18;19.80;49.40
7476;DHT22;3779;49.216;8.650;2024-03-17T23:24:04;19.80;49.50
7476;DHT22;3779;49.216;8.650;2024-03-17T23:27:07;19.80;49.60
7476;DHT22;3779;49.216;8.650;2024-03-17T23:29:59;19.70;49.80
7476;DHT22;3779;49.216;8.650;2024-03-17T23:32:52;19.80;50.00
7476;DHT22;3779;49.216;8.650;2024-03-17T23:35:40;19.80;49.70
7476;DHT22;3779;49.216;8.650;2024-03-17T23:38:26;19.80;50.00
7476;DHT22;3779;49.216;8.650;2024-03-17T23:41:13;19.90;50.00
7476;DHT22;3779;49.216;8.650;2024-03-17T23:44:00;19.90;49.80
7476;DHT22;3779;49.216;8.650;2024-03-17T23:46:45;19.90;49.80
7476;DHT22;3779;49.216;8.650;2024-03-17T23:49:31;19.90;50.10
7476;DHT22;3779;49.216;8.650;2024-03-17T23:52:17;19.90;50.00
7476;DHT22;3779;49.216;8.650;2024-03-17T23:55:03;19.80;50.00
7476;DHT22;3779;49.216;8.650;2024-03-17T23:57:49;19.90;50.20
